Time;durP1;ratioP1;P1;durP2;ratioP2;P2;SDS_P1;SDS_P2;PMS_P1;PMS_P2;Temp;Humidity;BMP_temperature;BMP_pressure;BME280_temperature;BME280_humidity;BME280_pressure;Samples;Min_cycle;Max_cycle;Signal;HPM_P1;HPM_P2
2023/07/12 04:02:19;;;;;;;1.80;1.77;;;25.10;88.10;;;;;;5178828;23;20504;-91
2023/07/12 04:04:44;;;;;;;3.53;1.73;;;25.10;88.20;;;;;;4980054;28;20426;-90
2023/07/12 04:07:10;;;;;;;1.27;1.23;;;25.10;88.60;;;;;;4970083;28;20185;-92
2023/07/12 04:09:35;;;;;;;1.70;1.50;;;25.00;89.00;;;;;;4970776;28;20182;-89
2023/07/12 04:12:01;;;;;;;1.63;1.60;;;25.00;89.00;;;;;;4970962;28;20333;-87
2023/07/12 04:14:26;;;;;;;2.60;2.10;;;25.00;89.30;;;;;;4974007;28;20193;-89
2023/07/12 04:16:52;;;;;;;1.60;1.50;;;24.90;89.40;;;;;;4973142;28;20183;-89
2023/07/12 04:19:17;;;;;;;2.70;1.30;;;24.90;89.60;;;;;;4973589;28;20278;-89
2023/07/12 04:21:43;;;;;;;3.00;2.73;;;24.80;89.50;;;;;;4973314;28;20297;-88
2023/07/12 04:24:08;;;;;;;2.07;1.93;;;24.80;90.00;;;;;;4972473;28;20236;-87
2023/07/12 04:26:34;;;;;;;2.53;1.90;;;24.80;90.10;;;;;;4974079;28;20210;-88
2023/07/12 04:29:00;;;;;;;1.80;1.70;;;24.80;90.10;;;;;;4972050;28;20294;-87
2023/07/12 04:31:26;;;;;;;3.20;2.30;;;24.80;90.40;;;;;;4971934;28;20210;-89
2023/07/12 04:33:51;;;;;;;2.43;1.60;;;24.70;90.40;;;;;;4967256;28;20443;-86
2023/07/12 04:36:18;;;;;;;1.67;1.67;;;24.70;90.50;;;;;;4980239;28;20220;-87
2023/07/12 04:38:44;;;;;;;2.13;1.33;;;24.70;90.50;;;;;;4974310;28;20190;-89
2023/07/12 04:41:09;;;;;;;1.70;1.60;;;24.60;90.60;;;;;;4970733;28;20454;-85
2023/07/12 04:43:35;;;;;;;1.73;1.57;;;24.60;90.80;;;;;;4970451;28;20836;-87
2023/07/12 04:46:01;;;;;;;2.83;2.17;;;24.60;90.90;;;;;;4973978;28;20179;-89
2023/07/12 04:48:27;;;;;;;1.93;1.87;;;24.60;90.90;;;;;;4974093;28;20866;-89
2023/07/12 04:50:54;;;;;;;4.37;1.30;;;24.50;90.80;;;;;;4976243;28;20441;-87
2023/07/12 04:53:21;;;;;;;1.63;1.63;;;24.50;90.80;;;;;;4974329;28;20269;-89
2023/07/12 04:55:50;;;;;;;1.30;1.20;;;24.50;91.00;;;;;;4984494;28;20829;-89
2023/07/12 04:58:16;;;;;;;1.43;1.13;;;24.50;91.00;;;;;;4975857;28;20472;-85
2023/07/12 05:00:43;;;;;;;2.50;1.47;;;24.50;91.00;;;;;;4980832;28;20452;-90
2023/07/12 05:03:08;;;;;;;2.47;1.97;;;24.40;91.10;;;;;;4971971;28;20305;-87
2023/07/12 05:05:37;;;;;;;2.10;1.40;;;24.50;91.30;;;;;;4970925;28;20518;-89
2023/07/12 05:08:05;;;;;;;3.23;1.70;;;24.50;91.40;;;;;;4977313;28;20202;-88
2023/07/12 05:10:31;;;;;;;2.30;1.87;;;24.50;91.10;;;;;;4970393;28;20422;-89
2023/07/12 05:12:57;;;;;;;1.93;1.83;;;24.50;91.60;;;;;;4979297;28;20441;-87
2023/07/12 05:15:22;;;;;;;1.53;1.50;;;24.50;91.70;;;;;;4976458;28;20198;-87
2023/07/12 05:17:48;;;;;;;1.60;1.50;;;24.50;91.60;;;;;;4980339;28;20187;-89
2023/07/12 05:20:14;;;;;;;1.60;1.50;;;24.50;91.60;;;;;;4977148;28;20178;-89
2023/07/12 05:22:40;;;;;;;3.23;2.20;;;24.50;91.40;;;;;;4989834;28;20214;-86
2023/07/12 05:25:06;;;;;;;2.07;1.50;;;24.50;91.50;;;;;;4975390;28;20803;-89
2023/07/12 05:27:32;;;;;;;1.83;1.73;;;24.50;91.30;;;;;;4976506;28;20425;-88
2023/07/12 05:29:57;;;;;;;2.90;2.13;;;24.50;91.80;;;;;;4977044;28;20214;-88
2023/07/12 05:32:23;;;;;;;2.07;1.77;;;24.50;91.90;;;;;;4976615;28;20206;-86
2023/07/12 05:34:48;;;;;;;1.60;1.60;;;24.50;91.60;;;;;;4975488;28;20856;-87
2023/07/12 05:37:14;;;;;;;2.70;2.00;;;24.60;91.40;;;;;;4975268;28;20193;-87
2023/07/12 05:39:40;;;;;;;2.27;1.70;;;24.60;91.80;;;;;;4975827;28;20186;-86
2023/07/12 05:42:06;;;;;;;2.80;1.93;;;24.60;91.60;;;;;;4974496;28;20290;-90
2023/07/12 05:44:34;;;;;;;2.33;2.00;;;24.60;91.50;;;;;;4974445;28;20441;-86
2023/07/12 05:47:00;;;;;;;2.80;1.53;;;24.60;91.50;;;;;;4980344;28;20405;-87
2023/07/12 05:49:25;;;;;;;2.70;1.40;;;24.60;91.50;;;;;;4978904;28;20474;-89
2023/07/12 05:51:51;;;;;;;1.60;1.53;;;24.60;91.60;;;;;;4974567;28;20256;-85
2023/07/12 05:54:17;;;;;;;1.40;1.30;;;24.60;91.90;;;;;;4975514;28;20210;-88
2023/07/12 05:56:43;;;;;;;4.10;2.30;;;24.50;91.70;;;;;;4997980;23;20246;-64
2023/07/12 05:59:09;;;;;;;1.97;1.47;;;24.50;91.70;;;;;;4958120;28;20191;-66
2023/07/12 06:01:35;;;;;;;2.30;1.37;;;24.60;92.10;;;;;;4976034;28;20304;-65
2023/07/12 06:04:01;;;;;;;3.40;1.83;;;24.60;92.10;;;;;;4983111;28;20528;-65
2023/07/12 06:06:26;;;;;;;1.33;1.20;;;24.60;92.00;;;;;;4986451;28;20193;-65
2023/07/12 06:08:52;;;;;;;1.50;1.40;;;24.60;92.00;;;;;;4983185;28;20429;-65
2023/07/12 06:11:17;;;;;;;1.53;1.40;;;24.60;92.10;;;;;;4987731;28;20217;-66
2023/07/12 06:13:43;;;;;;;2.20;1.67;;;24.60;92.20;;;;;;4987048;28;20329;-65
2023/07/12 06:16:08;;;;;;;2.00;1.67;;;24.60;92.20;;;;;;4982263;28;20717;-65
2023/07/12 06:18:34;;;;;;;5.13;2.03;;;24.60;92.30;;;;;;4983325;28;20351;-67
2023/07/12 06:21:01;;;;;;;4.87;2.50;;;24.60;92.00;;;;;;4984622;28;20293;-68
2023/07/12 06:23:29;;;;;;;1.40;1.33;;;24.50;92.20;;;;;;4984450;28;20182;-67
2023/07/12 06:25:58;;;;;;;2.87;2.10;;;24.60;92.10;;;;;;4980025;28;20434;-68
2023/07/12 06:28:25;;;;;;;2.30;1.63;;;24.60;91.80;;;;;;4984112;28;20839;-68
2023/07/12 06:30:51;;;;;;;2.40;1.87;;;24.60;92.10;;;;;;4981564;28;21787;-68
2023/07/12 06:33:17;;;;;;;3.33;2.50;;;24.60;91.80;;;;;;4984590;28;20441;-68
2023/07/12 06:35:43;;;;;;;1.43;1.40;;;24.60;91.70;;;;;;4981367;28;20442;-67
2023/07/12 06:38:08;;;;;;;1.77;1.43;;;24.60;91.70;;;;;;4985024;28;21067;-67
2023/07/12 06:40:34;;;;;;;6.73;2.20;;;24.60;91.30;;;;;;4984217;28;20500;-67
2023/07/12 06:43:00;;;;;;;1.83;1.73;;;24.60;91.30;;;;;;4988720;28;20197;-68
2023/07/12 06:45:25;;;;;;;1.70;1.40;;;24.60;91.20;;;;;;4987394;28;20709;-68
2023/07/12 06:47:51;;;;;;;2.20;1.30;;;24.60;91.30;;;;;;4988306;28;20182;-67
2023/07/12 06:50:17;;;;;;;2.80;1.33;;;24.60;91.30;;;;;;4986008;28;20662;-68
2023/07/12 06:52:42;;;;;;;1.27;1.17;;;24.60;91.20;;;;;;4979851;28;20182;-69
2023/07/12 06:55:09;;;;;;;70.67;3.20;;;24.70;91.30;;;;;;4987049;28;20344;-69
2023/07/12 06:57:35;;;;;;;5.90;2.40;;;24.70;91.20;;;;;;4988508;28;20228;-68
2023/07/12 07:00:07;;;;;;;2.20;1.73;;;24.70;91.10;;;;;;4986338;28;20445;-68
2023/07/12 07:02:33;;;;;;;1.33;1.23;;;24.70;91.20;;;;;;4986956;28;20464;-69
2023/07/12 07:04:59;;;;;;;2.13;1.97;;;24.70;91.50;;;;;;4986648;28;20840;-69
2023/07/12 07:07:24;;;;;;;2.80;1.53;;;24.80;91.10;;;;;;4985548;28;21185;-68
2023/07/12 07:09:50;;;;;;;4.93;2.90;;;24.80;91.10;;;;;;4984558;28;20682;-68
2023/07/12 07:12:15;;;;;;;1.23;1.23;;;24.90;91.30;;;;;;4987488;28;20293;-69
2023/07/12 07:14:41;;;;;;;1.43;1.30;;;24.90;91.30;;;;;;4987187;28;20182;-68
2023/07/12 07:17:08;;;;;;;1.20;1.10;;;25.00;91.00;;;;;;4986400;28;20192;-68
2023/07/12 07:19:33;;;;;;;9.40;1.63;;;25.00;90.80;;;;;;4985287;28;20240;-68
2023/07/12 07:21:59;;;;;;;1.37;1.33;;;25.10;90.40;;;;;;4986230;28;20473;-67
2023/07/12 07:24:24;;;;;;;2.90;1.83;;;25.10;90.60;;;;;;4987216;28;20642;-68
2023/07/12 07:26:51;;;;;;;1.70;1.47;;;25.10;90.40;;;;;;4979436;28;20695;-68
2023/07/12 07:29:16;;;;;;;4.67;2.23;;;25.10;90.50;;;;;;4983973;28;20234;-67
2023/07/12 07:31:43;;;;;;;1.53;1.53;;;25.10;90.90;;;;;;4984803;28;20457;-68
2023/07/12 07:34:08;;;;;;;1.30;1.20;;;25.10;90.50;;;;;;4984395;28;20182;-68
2023/07/12 07:36:34;;;;;;;3.33;1.30;;;25.10;90.10;;;;;;4986035;28;20421;-68
2023/07/12 07:39:00;;;;;;;5.17;2.90;;;25.10;90.50;;;;;;4987734;28;20182;-68
2023/07/12 07:41:26;;;;;;;2.10;1.67;;;25.10;90.60;;;;;;4981163;28;20473;-68
2023/07/12 07:43:51;;;;;;;2.50;2.03;;;25.10;90.70;;;;;;4984067;28;20413;-69
2023/07/12 07:46:17;;;;;;;5.40;2.37;;;25.10;90.90;;;;;;4982927;28;20202;-67
2023/07/12 07:48:43;;;;;;;3.43;2.67;;;25.00;91.40;;;;;;4984929;28;20700;-68
2023/07/12 07:51:10;;;;;;;3.87;1.90;;;25.00;91.90;;;;;;4988602;28;20703;-68
2023/07/12 07:53:35;;;;;;;1.97;1.83;;;25.10;92.10;;;;;;4985721;28;20179;-69
2023/07/12 07:56:05;;;;;;;3.90;2.60;;;25.00;92.30;;;;;;4980330;28;20471;-72
2023/07/12 07:58:31;;;;;;;4.90;2.00;;;25.00;92.40;;;;;;4983667;28;20175;-69
2023/07/12 08:00:57;;;;;;;1.67;1.50;;;25.10;92.70;;;;;;4978727;28;20464;-70
2023/07/12 08:03:22;;;;;;;1.90;1.80;;;25.10;92.70;;;;;;4980414;28;20276;-69
2023/07/12 08:05:48;;;;;;;3.90;2.37;;;25.20;92.60;;;;;;4986068;28;20210;-70
2023/07/12 08:08:15;;;;;;;4.07;2.33;;;25.10;92.30;;;;;;4978776;28;20186;-70
2023/07/12 08:10:41;;;;;;;1.87;1.77;;;25.00;91.80;;;;;;4986432;28;20280;-67
2023/07/12 08:13:07;;;;;;;13.37;2.50;;;24.80;91.80;;;;;;4984891;28;20449;-67
2023/07/12 08:15:34;;;;;;;3.70;3.30;;;24.70;91.70;;;;;;4987743;28;20673;-66
2023/07/12 08:18:00;;;;;;;3.83;2.20;;;24.60;91.00;;;;;;4980156;28;20546;-68
2023/07/12 08:20:25;;;;;;;3.47;2.60;;;24.50;91.60;;;;;;4984095;28;20456;-68
2023/07/12 08:22:52;;;;;;;3.53;2.53;;;24.40;91.70;;;;;;4984661;28;20264;-70
2023/07/12 08:25:18;;;;;;;7.17;3.03;;;24.30;91.90;;;;;;4983343;28;20201;-67
2023/07/12 08:27:43;;;;;;;5.47;2.77;;;24.20;91.90;;;;;;4986538;28;20909;-68
2023/07/12 08:30:10;;;;;;;3.27;2.60;;;24.10;91.80;;;;;;4985605;28;20170;-67
2023/07/12 08:32:35;;;;;;;2.80;2.13;;;24.10;91.70;;;;;;4982993;28;20192;-68
2023/07/12 08:35:03;;;;;;;5.93;2.20;;;24.00;92.00;;;;;;4987262;28;20421;-68
2023/07/12 08:37:29;;;;;;;5.67;2.93;;;24.10;92.40;;;;;;4980548;28;20220;-68
2023/07/12 08:39:55;;;;;;;4.60;2.63;;;24.20;92.20;;;;;;4987149;28;20457;-68
2023/07/12 08:42:24;;;;;;;6.23;3.30;;;24.20;91.60;;;;;;4977943;28;20206;-69
2023/07/12 08:44:50;;;;;;;1.90;1.50;;;24.20;92.00;;;;;;4987819;28;20417;-68
2023/07/12 08:47:26;;;;;;;3.20;2.70;;;24.30;91.80;;;;;;4984236;28;20906;-69
2023/07/12 08:49:52;;;;;;;3.30;2.20;;;24.40;91.30;;;;;;4980850;28;20442;-69
2023/07/12 08:52:21;;;;;;;4.13;1.93;;;24.50;91.50;;;;;;4979174;28;20481;-69
2023/07/12 08:54:48;;;;;;;4.10;2.23;;;24.60;91.40;;;;;;4984149;28;20178;-70
2023/07/12 08:57:16;;;;;;;4.63;2.90;;;24.60;91.60;;;;;;4985386;28;21019;-69
2023/07/12 08:59:43;;;;;;;2.63;2.23;;;24.70;91.30;;;;;;4985539;28;20952;-69
2023/07/12 09:02:24;;;;;;;1.90;1.63;;;24.70;91.20;;;;;;4983529;28;20615;-69
2023/07/12 09:04:50;;;;;;;2.77;2.10;;;24.80;91.30;;;;;;4984737;28;20492;-72
2023/07/12 09:07:53;;;;;;;1.97;1.70;;;24.80;91.30;;;;;;4982755;28;20433;-69
2023/07/12 09:10:39;;;;;;;1.47;1.37;;;24.70;91.20;;;;;;4980370;28;20424;-67
2023/07/12 09:13:06;;;;;;;5.73;2.63;;;24.70;91.50;;;;;;4985802;28;20448;-69
2023/07/12 09:15:37;;;;;;;1.93;1.10;;;24.60;91.80;;;;;;4983857;28;20806;-69
2023/07/12 09:18:07;;;;;;;2.53;1.90;;;24.60;92.00;;;;;;4987586;28;20460;-69
2023/07/12 09:20:37;;;;;;;3.00;1.90;;;24.60;91.70;;;;;;4986752;28;20452;-69
2023/07/12 09:23:03;;;;;;;1.60;1.50;;;24.60;92.00;;;;;;4986129;28;20515;-70
2023/07/12 09:25:37;;;;;;;1.20;1.10;;;24.70;92.10;;;;;;4985338;28;20708;-69
2023/07/12 09:28:04;;;;;;;3.23;2.10;;;24.70;92.20;;;;;;4983256;28;20288;-70
2023/07/12 09:30:34;;;;;;;1.87;1.77;;;24.80;91.90;;;;;;4986792;28;20956;-70
2023/07/12 09:33:03;;;;;;;2.50;1.97;;;24.90;91.80;;;;;;4985836;28;20448;-70
2023/07/12 09:35:41;;;;;;;15.33;3.23;;;25.00;91.60;;;;;;4983784;28;20472;-70
2023/07/12 09:38:12;;;;;;;1.63;1.30;;;25.10;91.00;;;;;;4983002;28;20436;-70
2023/07/12 09:40:41;;;;;;;2.30;1.77;;;25.30;90.70;;;;;;4987381;28;20589;-70
2023/07/12 09:43:15;;;;;;;1.50;1.40;;;25.30;90.10;;;;;;4984314;28;20762;-70
2023/07/12 09:45:43;;;;;;;4.40;2.17;;;25.40;90.30;;;;;;4987217;28;20499;-70
2023/07/12 09:48:55;;;;;;;1.40;1.30;;;25.50;90.50;;;;;;4987949;28;20433;-70
2023/07/12 09:51:29;;;;;;;1.93;1.67;;;25.60;89.90;;;;;;4976156;28;20483;-70
2023/07/12 09:54:23;;;;;;;1.73;1.73;;;25.70;89.10;;;;;;4984586;28;20934;-69
2023/07/12 09:56:55;;;;;;;1.80;1.70;;;25.70;89.90;;;;;;4981475;28;20477;-71
2023/07/12 09:59:50;;;;;;;1.70;1.50;;;25.80;89.40;;;;;;4984345;28;20438;-70
2023/07/12 10:02:37;;;;;;;1.73;1.63;;;25.90;89.40;;;;;;4984053;28;20563;-70
2023/07/12 10:05:04;;;;;;;1.53;1.43;;;26.10;89.60;;;;;;4987444;28;20490;-69
2023/07/12 10:07:51;;;;;;;4.63;2.70;;;26.20;89.70;;;;;;4990115;28;20629;-70
2023/07/12 10:10:34;;;;;;;2.53;2.37;;;26.30;90.00;;;;;;4982374;28;20421;-69
2023/07/12 10:13:06;;;;;;;2.00;1.90;;;26.40;89.30;;;;;;4989118;28;20926;-70
2023/07/12 10:15:36;;;;;;;1.90;1.80;;;26.50;89.10;;;;;;4977844;28;20442;-70
2023/07/12 10:18:03;;;;;;;16.53;2.13;;;26.60;88.80;;;;;;4980686;28;20488;-69
2023/07/12 10:20:29;;;;;;;2.27;2.10;;;26.70;89.00;;;;;;4983594;28;22315;-69
2023/07/12 10:22:56;;;;;;;2.40;1.97;;;26.70;88.20;;;;;;4983600;28;20514;-70
2023/07/12 10:25:22;;;;;;;3.50;1.80;;;26.80;87.90;;;;;;4983846;28;21254;-70
2023/07/12 10:28:24;;;;;;;3.53;2.03;;;26.80;87.70;;;;;;4980575;28;20503;-70
2023/07/12 10:30:52;;;;;;;2.60;1.67;;;27.00;87.10;;;;;;4986667;28;20232;-70
2023/07/12 10:33:35;;;;;;;6.80;2.30;;;27.10;86.50;;;;;;4987107;28;20444;-70
2023/07/12 10:36:06;;;;;;;2.27;2.10;;;27.30;86.70;;;;;;4990250;28;20493;-70
2023/07/12 10:38:32;;;;;;;4.30;2.50;;;27.40;86.30;;;;;;4977428;28;20476;-70
2023/07/12 10:41:18;;;;;;;1.70;1.60;;;27.50;86.30;;;;;;4977759;28;20543;-71
2023/07/12 10:43:47;;;;;;;1.57;1.50;;;27.60;85.60;;;;;;4983663;28;20261;-70
2023/07/12 10:46:21;;;;;;;2.00;1.67;;;27.60;85.40;;;;;;4977277;28;20433;-70
2023/07/12 10:48:51;;;;;;;2.30;2.13;;;27.70;85.20;;;;;;4984088;28;21027;-70
2023/07/12 10:51:39;;;;;;;4.73;1.33;;;27.70;85.00;;;;;;4987703;28;20859;-70
2023/07/12 10:54:21;;;;;;;2.50;2.00;;;27.80;84.80;;;;;;4983924;28;20447;-69
2023/07/12 10:56:52;;;;;;;2.30;1.40;;;27.90;84.50;;;;;;4983147;28;20984;-69
2023/07/12 10:59:44;;;;;;;1.60;1.37;;;28.10;84.40;;;;;;4986096;28;21469;-69
2023/07/12 11:02:21;;;;;;;1.37;1.20;;;28.10;82.20;;;;;;4982589;28;20469;-70
2023/07/12 11:04:49;;;;;;;3.00;2.67;;;28.10;83.10;;;;;;4983485;28;20421;-70
2023/07/12 11:07:14;;;;;;;1.80;1.50;;;28.20;83.90;;;;;;4984014;28;20491;-69
2023/07/12 11:09:46;;;;;;;7.47;1.90;;;28.20;83.50;;;;;;4986896;28;20433;-72
2023/07/12 11:12:36;;;;;;;2.10;1.23;;;28.20;83.90;;;;;;4988415;28;20306;-68
2023/07/12 11:15:22;;;;;;;5.17;2.03;;;28.20;82.90;;;;;;4979643;28;20453;-68
2023/07/12 11:17:50;;;;;;;1.70;1.60;;;28.10;83.20;;;;;;4985586;28;20421;-69
2023/07/12 11:20:26;;;;;;;1.93;1.83;;;28.00;83.40;;;;;;4979919;28;20477;-70
2023/07/12 11:22:53;;;;;;;2.30;1.70;;;28.00;82.80;;;;;;4978803;28;21122;-70
2023/07/12 11:25:38;;;;;;;2.23;2.10;;;28.00;83.40;;;;;;4979064;28;20440;-72
2023/07/12 11:28:22;;;;;;;10.37;2.40;;;28.00;83.60;;;;;;4981462;28;20441;-69
2023/07/12 11:31:04;;;;;;;1.77;1.53;;;28.00;81.00;;;;;;4985236;28;20510;-70
2023/07/12 11:33:32;;;;;;;1.80;1.40;;;27.90;80.50;;;;;;4986884;28;20428;-69
2023/07/12 11:36:09;;;;;;;1.37;1.23;;;27.80;81.10;;;;;;4981195;28;20537;-69
2023/07/12 11:38:36;;;;;;;1.13;1.10;;;27.90;80.90;;;;;;4984286;28;20432;-70
2023/07/12 11:41:05;;;;;;;1.60;1.40;;;28.10;79.80;;;;;;4986897;28;20437;-70
2023/07/12 11:43:37;;;;;;;3.03;1.00;;;28.20;79.90;;;;;;4986600;28;20836;-71
2023/07/12 11:46:10;;;;;;;1.80;1.30;;;28.40;79.00;;;;;;4986358;28;20433;-70
2023/07/12 11:48:36;;;;;;;0.93;0.87;;;28.50;76.30;;;;;;4986203;28;20433;-70
2023/07/12 11:51:04;;;;;;;0.80;0.70;;;28.40;72.90;;;;;;4986391;28;20455;-69
2023/07/12 11:53:32;;;;;;;1.37;1.27;;;28.30;72.90;;;;;;4985145;28;20198;-69
2023/07/12 11:55:57;;;;;;;0.97;0.87;;;28.20;73.10;;;;;;4985546;28;21168;-71
2023/07/12 11:58:26;;;;;;;1.63;1.10;;;28.10;73.00;;;;;;5003994;28;20580;-68
2023/07/12 12:00:56;;;;;;;1.10;1.00;;;28.10;72.60;;;;;;4986277;28;20288;-65
2023/07/12 12:03:21;;;;;;;1.27;1.17;;;28.20;72.60;;;;;;4988270;28;20487;-65
2023/07/12 12:05:48;;;;;;;1.03;1.03;;;28.30;73.20;;;;;;4986316;28;20436;-66
2023/07/12 12:08:20;;;;;;;0.80;0.70;;;28.40;72.50;;;;;;4985664;28;20654;-69
2023/07/12 12:10:48;;;;;;;0.80;0.80;;;28.50;71.90;;;;;;4987129;28;20432;-66
2023/07/12 12:13:19;;;;;;;0.90;0.80;;;28.60;71.70;;;;;;4984808;28;20452;-64
2023/07/12 12:15:56;;;;;;;0.90;0.80;;;28.70;72.20;;;;;;4985197;28;20679;-65
2023/07/12 12:18:24;;;;;;;1.90;1.13;;;28.70;72.10;;;;;;4985396;28;20433;-68
2023/07/12 12:20:55;;;;;;;1.07;0.97;;;28.80;71.80;;;;;;4983432;28;20453;-66
2023/07/12 12:23:30;;;;;;;1.10;1.00;;;28.90;72.30;;;;;;4995698;23;20920;-87
2023/07/12 12:26:01;;;;;;;1.00;0.90;;;29.00;72.60;;;;;;4949641;28;20954;-89
2023/07/12 12:28:31;;;;;;;2.00;1.70;;;29.00;71.80;;;;;;4954137;28;20419;-87
2023/07/12 12:31:18;;;;;;;0.90;0.80;;;29.00;72.30;;;;;;4954749;28;20446;-88
2023/07/12 12:33:51;;;;;;;0.80;0.80;;;29.10;73.00;;;;;;4949475;28;20501;-87
2023/07/12 12:36:26;;;;;;;2.00;1.60;;;29.30;72.00;;;;;;4953247;28;21020;-89
2023/07/12 12:39:01;;;;;;;1.00;0.90;;;29.50;71.90;;;;;;4949417;28;20457;-87
2023/07/12 12:41:36;;;;;;;1.20;0.90;;;29.60;71.80;;;;;;4953688;28;20492;-89
2023/07/12 12:44:30;;;;;;;1.53;1.07;;;29.60;70.60;;;;;;4953582;29;20473;-90
2023/07/12 12:47:00;;;;;;;1.03;0.97;;;29.50;71.40;;;;;;4949394;29;20983;-89
2023/07/12 12:49:27;;;;;;;1.10;1.00;;;29.50;72.10;;;;;;4949540;28;20562;-90
2023/07/12 12:51:55;;;;;;;1.20;1.10;;;29.60;72.40;;;;;;4953738;28;20434;-90
2023/07/12 12:54:21;;;;;;;1.97;1.03;;;29.70;70.60;;;;;;4952781;28;20454;-88
2023/07/12 12:56:49;;;;;;;2.80;1.27;;;29.60;71.00;;;;;;4953274;28;20525;-90
2023/07/12 12:59:17;;;;;;;5.87;1.30;;;29.60;72.00;;;;;;4945401;29;20887;-90
2023/07/12 13:01:45;;;;;;;0.90;0.87;;;29.50;71.10;;;;;;4954294;29;20462;-91
2023/07/12 13:04:13;;;;;;;0.93;0.83;;;29.40;72.00;;;;;;4953317;28;20969;-90
2023/07/12 13:06:40;;;;;;;2.10;1.10;;;29.30;72.30;;;;;;4953185;29;20538;-89
2023/07/12 13:09:19;;;;;;;1.50;1.40;;;29.30;72.40;;;;;;4953553;29;20509;-92
2023/07/12 13:11:45;;;;;;;1.03;1.03;;;29.20;71.50;;;;;;4954152;29;20450;-93
2023/07/12 13:14:10;;;;;;;0.90;0.90;;;29.10;72.00;;;;;;4949410;28;20459;-91
2023/07/12 13:16:36;;;;;;;1.03;1.00;;;29.10;72.40;;;;;;4956687;28;20187;-91
2023/07/12 13:19:01;;;;;;;1.07;1.00;;;29.20;72.50;;;;;;4957642;29;20191;-90
2023/07/12 13:21:27;;;;;;;8.43;1.53;;;29.20;72.20;;;;;;4953692;28;20192;-90
2023/07/12 13:23:53;;;;;;;2.83;1.10;;;29.30;72.00;;;;;;4958230;28;20242;-89
2023/07/12 13:26:21;;;;;;;1.40;1.30;;;29.30;72.00;;;;;;4957301;29;20728;-88
2023/07/12 13:28:47;;;;;;;2.10;1.37;;;29.30;71.70;;;;;;4955460;29;20187;-89
2023/07/12 13:31:19;;;;;;;1.67;1.17;;;29.50;71.70;;;;;;4958228;28;20484;-87
2023/07/12 13:33:45;;;;;;;1.43;1.17;;;29.40;71.50;;;;;;4958712;28;20446;-87
2023/07/12 13:36:26;;;;;;;2.03;1.10;;;29.50;71.70;;;;;;4957671;28;20427;-88
2023/07/12 13:38:52;;;;;;;1.53;1.13;;;29.70;71.20;;;;;;4953845;29;20434;-87
2023/07/12 13:41:17;;;;;;;1.13;1.03;;;29.80;70.80;;;;;;4955239;29;20931;-87
2023/07/12 13:43:46;;;;;;;0.90;0.80;;;30.00;71.30;;;;;;4955480;28;20195;-87
2023/07/12 13:46:13;;;;;;;1.10;1.00;;;30.10;68.50;;;;;;4958264;28;20268;-88
2023/07/12 13:48:40;;;;;;;1.53;1.33;;;30.10;69.20;;;;;;4953097;29;20466;-88
2023/07/12 13:51:20;;;;;;;2.70;1.00;;;30.10;69.40;;;;;;4957204;29;20437;-88
2023/07/12 13:53:47;;;;;;;1.53;1.10;;;30.10;67.90;;;;;;4955743;28;20548;-88
2023/07/12 13:56:13;;;;;;;1.70;1.23;;;30.10;68.40;;;;;;4964015;28;20451;-87
2023/07/12 13:58:39;;;;;;;1.53;1.20;;;30.20;68.80;;;;;;4954111;29;20549;-90
2023/07/12 14:01:04;;;;;;;0.93;0.80;;;30.20;69.30;;;;;;4955661;28;20187;-90
2023/07/12 14:03:30;;;;;;;1.30;1.30;;;30.30;69.40;;;;;;4958742;28;20512;-91
2023/07/12 14:05:55;;;;;;;1.50;0.90;;;30.20;69.50;;;;;;4958710;29;20210;-90
2023/07/12 14:08:21;;;;;;;30.93;1.80;;;30.10;69.70;;;;;;4957479;28;20183;-88
2023/07/12 14:10:47;;;;;;;2.13;1.97;;;30.10;70.30;;;;;;4957571;28;20193;-90
2023/07/12 14:13:22;;;;;;;2.10;1.20;;;30.00;70.10;;;;;;4957497;28;20222;-91
2023/07/12 14:15:48;;;;;;;1.10;1.00;;;29.90;70.60;;;;;;4957106;29;20259;-90
2023/07/12 14:18:13;;;;;;;1.30;1.30;;;29.80;70.40;;;;;;4956802;29;20442;-90
2023/07/12 14:20:39;;;;;;;1.60;1.50;;;29.80;70.80;;;;;;4955749;29;21083;-89
2023/07/12 14:23:14;;;;;;;1.27;1.10;;;29.80;70.20;;;;;;4956827;29;20226;-90
2023/07/12 14:25:40;;;;;;;1.73;1.63;;;29.90;70.50;;;;;;4956899;29;20289;-90
2023/07/12 14:28:07;;;;;;;1.00;0.90;;;29.90;69.80;;;;;;4948916;28;20603;-89
2023/07/12 14:30:36;;;;;;;2.43;1.10;;;29.90;69.70;;;;;;4950832;28;20179;-88
2023/07/12 14:33:01;;;;;;;1.20;1.10;;;29.90;69.10;;;;;;4955651;28;20454;-88
2023/07/12 14:35:27;;;;;;;1.30;1.20;;;29.90;69.70;;;;;;4938042;28;20447;-88
2023/07/12 14:37:54;;;;;;;3.37;1.50;;;29.90;69.60;;;;;;4955614;28;20187;-90
2023/07/12 14:40:20;;;;;;;1.23;1.13;;;29.90;68.50;;;;;;4956645;28;20198;-88
2023/07/12 14:42:46;;;;;;;1.57;1.33;;;29.90;68.90;;;;;;4946790;28;20471;-89
2023/07/12 14:45:20;;;;;;;4.40;2.10;;;29.90;69.70;;;;;;4955070;28;20282;-87
2023/07/12 14:47:48;;;;;;;1.10;1.10;;;30.00;69.90;;;;;;4959481;28;20477;-90
2023/07/12 14:50:14;;;;;;;3.90;1.40;;;30.10;68.20;;;;;;4955221;29;20437;-88
2023/07/12 14:52:43;;;;;;;0.90;0.83;;;30.00;69.10;;;;;;4953474;28;20521;-89
2023/07/12 14:55:14;;;;;;;1.20;1.10;;;30.00;68.70;;;;;;4954644;29;20849;-90
2023/07/12 14:57:39;;;;;;;4.97;1.40;;;30.10;68.40;;;;;;4952424;28;20970;-89
2023/07/12 15:00:10;;;;;;;2.20;1.10;;;30.10;68.10;;;;;;4959596;28;20521;-84
2023/07/12 15:02:37;;;;;;;1.10;0.77;;;30.10;68.40;;;;;;4949904;29;20263;-88
2023/07/12 15:05:03;;;;;;;1.30;1.20;;;30.30;67.90;;;;;;4954303;29;20557;-89
2023/07/12 15:07:32;;;;;;;1.37;1.30;;;30.40;67.70;;;;;;4952755;28;20461;-88
2023/07/12 15:10:00;;;;;;;1.33;1.17;;;30.60;68.20;;;;;;4945542;29;20439;-89
2023/07/12 15:12:39;;;;;;;1.00;0.90;;;30.80;68.60;;;;;;4953717;28;20439;-89
2023/07/12 15:15:22;;;;;;;1.30;1.20;;;30.90;67.00;;;;;;4954847;29;20447;-88
2023/07/12 15:17:55;;;;;;;1.33;1.23;;;30.90;66.40;;;;;;4949416;29;20426;-87
2023/07/12 15:20:20;;;;;;;1.17;1.07;;;30.80;66.30;;;;;;4952889;29;20454;-89
2023/07/12 15:22:46;;;;;;;1.03;0.93;;;30.80;67.50;;;;;;4948296;28;20909;-88
2023/07/12 15:25:24;;;;;;;2.23;1.87;;;30.70;67.40;;;;;;4945045;29;20303;-87
2023/07/12 15:27:50;;;;;;;3.73;1.63;;;30.70;65.70;;;;;;4955258;28;20194;-89
2023/07/12 15:30:23;;;;;;;1.60;1.30;;;30.50;66.00;;;;;;4953490;28;20439;-90
2023/07/12 15:32:51;;;;;;;2.17;1.63;;;30.40;65.70;;;;;;4950517;29;20513;-88
2023/07/12 15:35:40;;;;;;;1.50;1.10;;;30.30;66.70;;;;;;4957715;28;20452;-89
2023/07/12 15:38:08;;;;;;;3.43;1.30;;;30.20;66.40;;;;;;4953119;28;20446;-91
2023/07/12 15:40:58;;;;;;;1.00;0.90;;;30.20;67.10;;;;;;4949540;28;21106;-87
2023/07/12 15:43:54;;;;;;;2.60;1.60;;;30.30;67.40;;;;;;4946977;28;20493;-87
2023/07/12 15:46:25;;;;;;;1.40;1.30;;;30.40;66.80;;;;;;4948636;29;20442;-90
2023/07/12 15:48:52;;;;;;;1.27;1.20;;;30.30;66.10;;;;;;4948570;28;20447;-85
2023/07/12 15:51:20;;;;;;;1.70;1.60;;;30.30;67.40;;;;;;4956876;28;20426;-87
2023/07/12 15:53:50;;;;;;;1.60;1.50;;;30.30;67.40;;;;;;4954185;28;20466;-87
2023/07/12 15:56:18;;;;;;;1.90;1.80;;;30.20;66.70;;;;;;4952227;28;20452;-88
2023/07/12 15:58:45;;;;;;;1.70;1.60;;;30.20;67.40;;;;;;4964496;28;20482;-87
2023/07/12 16:01:20;;;;;;;2.40;2.20;;;30.20;66.60;;;;;;4952025;28;20531;-88
2023/07/12 16:03:46;;;;;;;4.40;1.77;;;30.20;66.30;;;;;;4953012;28;20528;-88
2023/07/12 16:06:12;;;;;;;47.93;2.20;;;30.20;66.80;;;;;;4956754;28;20443;-89
2023/07/12 16:08:38;;;;;;;4.87;1.97;;;30.20;66.60;;;;;;4952261;28;20907;-89
2023/07/12 16:11:18;;;;;;;1.27;1.17;;;30.20;66.20;;;;;;4959538;28;20439;-91
2023/07/12 16:13:45;;;;;;;2.00;1.40;;;30.30;66.40;;;;;;4949550;28;20246;-90
2023/07/12 16:16:18;;;;;;;1.90;1.80;;;30.30;65.60;;;;;;4953948;29;20514;-91
2023/07/12 16:18:45;;;;;;;1.80;1.37;;;30.30;66.30;;;;;;4958719;28;20437;-92
2023/07/12 16:21:16;;;;;;;1.10;1.00;;;30.40;65.60;;;;;;4961775;28;20489;-90
2023/07/12 16:23:44;;;;;;;1.17;1.10;;;30.40;65.90;;;;;;4945546;28;20483;-90
2023/07/12 16:26:22;;;;;;;1.20;1.10;;;30.50;65.50;;;;;;4953683;29;20436;-89
2023/07/12 16:28:49;;;;;;;2.47;0.77;;;30.60;65.10;;;;;;4953420;29;20810;-90
2023/07/12 16:31:23;;;;;;;1.97;1.83;;;30.60;64.70;;;;;;4951984;29;20449;-90
2023/07/12 16:33:54;;;;;;;1.90;1.60;;;30.50;64.90;;;;;;4954879;28;20473;-91
2023/07/12 16:36:22;;;;;;;2.90;1.53;;;30.50;64.90;;;;;;4946631;28;20874;-90
2023/07/12 16:38:49;;;;;;;1.43;1.03;;;30.50;64.40;;;;;;4944219;29;20443;-88
2023/07/12 16:41:26;;;;;;;1.63;1.53;;;30.40;64.70;;;;;;4951871;29;20470;-88
2023/07/12 16:43:53;;;;;;;1.30;1.20;;;30.30;65.30;;;;;;4949822;29;20442;-88
2023/07/12 16:46:19;;;;;;;1.33;1.10;;;30.30;64.70;;;;;;4954072;28;20439;-89
2023/07/12 16:48:45;;;;;;;1.70;1.27;;;30.20;64.50;;;;;;4953571;29;20471;-88
2023/07/12 16:51:21;;;;;;;1.83;1.07;;;30.10;64.80;;;;;;4951614;28;20526;-87
2023/07/12 16:53:47;;;;;;;2.13;1.10;;;30.00;65.70;;;;;;4970588;28;20598;-88
2023/07/12 16:56:17;;;;;;;1.37;1.07;;;29.90;66.00;;;;;;4960439;28;20430;-89
2023/07/12 16:58:43;;;;;;;1.77;1.60;;;29.80;66.30;;;;;;4956537;28;20563;-90